Time;durP1;ratioP1;P1;durP2;ratioP2;P2;SDS_P1;SDS_P2;PMS_P1;PMS_P2;Temp;Humidity;BMP_temperature;BMP_pressure;BME280_temperature;BME280_humidity;BME280_pressure;Samples;Min_cycle;Max_cycle;Signal;HPM_P1;HPM_P2
2021/06/20 00:00:55;;;;;;;6.90;2.93;;;23.00;99.90;;;;;;5057906;28;20173;-65
2021/06/20 00:03:21;;;;;;;3.50;2.57;;;22.80;99.90;;;;;;5057461;28;20489;-64
2021/06/20 00:05:52;;;;;;;7.00;2.73;;;22.70;99.90;;;;;;5057654;28;20204;-65
2021/06/20 00:08:18;;;;;;;5.17;3.23;;;22.60;99.90;;;;;;5058587;28;20898;-65
2021/06/20 00:10:44;;;;;;;7.43;3.50;;;22.40;99.90;;;;;;5059019;28;20416;-64
2021/06/20 00:13:10;;;;;;;4.70;3.03;;;22.20;99.90;;;;;;5057918;28;20190;-65
2021/06/20 00:15:37;;;;;;;4.97;3.60;;;22.20;99.90;;;;;;5056999;28;20444;-64
2021/06/20 00:18:04;;;;;;;4.97;3.53;;;22.40;99.90;;;;;;5057827;28;20189;-64
2021/06/20 00:20:37;;;;;;;8.30;4.00;;;22.50;99.90;;;;;;5057759;28;20488;-64
2021/06/20 00:23:02;;;;;;;6.10;3.83;;;22.60;99.90;;;;;;5057610;28;20397;-65
2021/06/20 00:25:28;;;;;;;7.20;4.20;;;22.70;99.90;;;;;;5057124;28;20964;-65
2021/06/20 00:27:56;;;;;;;6.53;3.23;;;22.80;99.90;;;;;;5057181;28;20265;-65
2021/06/20 00:30:24;;;;;;;4.30;3.07;;;22.80;99.90;;;;;;5057184;28;20417;-65
2021/06/20 00:32:50;;;;;;;4.87;3.30;;;22.80;99.90;;;;;;5056932;28;20546;-65
2021/06/20 00:35:17;;;;;;;6.07;4.50;;;22.80;99.90;;;;;;5057009;28;20853;-65
2021/06/20 00:37:43;;;;;;;5.27;3.60;;;22.70;99.90;;;;;;5056897;28;20202;-65
2021/06/20 00:40:10;;;;;;;6.87;3.40;;;22.70;99.90;;;;;;5057002;28;20795;-65
2021/06/20 00:42:36;;;;;;;4.73;4.10;;;22.70;99.90;;;;;;5056796;28;20418;-65
2021/06/20 00:45:03;;;;;;;6.43;4.10;;;22.70;99.90;;;;;;5057267;28;20429;-65
2021/06/20 00:47:28;;;;;;;4.80;3.60;;;22.60;99.90;;;;;;5057378;28;20497;-64
2021/06/20 00:49:54;;;;;;;5.43;3.50;;;22.70;99.90;;;;;;5057157;28;20404;-65
2021/06/20 00:52:20;;;;;;;7.57;4.00;;;22.80;99.90;;;;;;5056525;28;20190;-66
2021/06/20 00:54:49;;;;;;;6.80;3.20;;;22.90;99.90;;;;;;5056606;28;20739;-65
2021/06/20 00:57:17;;;;;;;4.20;3.50;;;23.00;99.90;;;;;;5055428;28;20181;-66
2021/06/20 00:59:46;;;;;;;4.10;3.00;;;23.00;99.90;;;;;;5057713;28;20444;-65
2021/06/20 01:02:13;;;;;;;3.63;3.00;;;23.00;99.90;;;;;;5057830;28;20419;-65
2021/06/20 01:04:40;;;;;;;6.25;2.80;;;23.00;99.90;;;;;;5056026;28;20404;-65
2021/06/20 01:07:06;;;;;;;5.40;2.60;;;23.00;99.90;;;;;;5056488;28;20175;-65
2021/06/20 01:09:31;;;;;;;5.63;2.90;;;23.00;99.90;;;;;;5055800;28;20499;-65
2021/06/20 01:11:57;;;;;;;2.67;2.47;;;23.00;99.90;;;;;;5056286;28;20209;-64
2021/06/20 01:14:23;;;;;;;6.47;3.27;;;23.00;99.90;;;;;;5057065;28;20179;-63
2021/06/20 01:16:53;;;;;;;6.67;2.70;;;23.00;99.90;;;;;;5056011;28;20190;-64
2021/06/20 01:19:19;;;;;;;4.87;2.70;;;22.90;99.90;;;;;;5056176;28;20171;-63
2021/06/20 01:21:45;;;;;;;3.73;2.30;;;22.90;99.90;;;;;;5056477;28;20902;-65
2021/06/20 01:24:11;;;;;;;4.43;2.13;;;23.00;99.90;;;;;;5056207;28;20420;-65
2021/06/20 01:26:38;;;;;;;2.93;2.30;;;23.00;99.90;;;;;;5055763;28;20472;-65
2021/06/20 01:29:07;;;;;;;4.17;2.57;;;23.00;99.90;;;;;;5055832;28;20918;-65
2021/06/20 01:31:35;;;;;;;3.50;2.23;;;22.90;99.90;;;;;;5056078;28;20429;-65
2021/06/20 01:34:01;;;;;;;5.60;2.50;;;22.90;99.90;;;;;;5056510;28;20416;-65
2021/06/20 01:36:27;;;;;;;4.60;2.67;;;22.80;99.90;;;;;;5055821;28;20436;-65
2021/06/20 01:38:52;;;;;;;3.53;2.40;;;22.80;99.90;;;;;;5055719;28;20804;-64
2021/06/20 01:41:18;;;;;;;4.57;3.13;;;22.70;99.90;;;;;;5055527;28;20782;-65
2021/06/20 01:43:44;;;;;;;6.97;3.17;;;22.50;99.90;;;;;;5055852;28;20174;-65
2021/06/20 01:46:09;;;;;;;6.40;2.63;;;22.30;99.90;;;;;;5054574;28;20762;-65
2021/06/20 01:48:36;;;;;;;3.60;2.80;;;21.90;99.90;;;;;;5055568;28;20178;-65
2021/06/20 01:51:05;;;;;;;4.40;2.87;;;21.70;99.90;;;;;;5055560;28;20260;-64
2021/06/20 01:53:31;;;;;;;5.37;2.80;;;21.50;99.90;;;;;;5055545;28;20961;-65
2021/06/20 01:55:56;;;;;;;5.60;3.00;;;21.30;99.90;;;;;;5054859;28;20443;-65
2021/06/20 01:58:22;;;;;;;3.67;2.80;;;21.40;99.90;;;;;;5054981;28;20243;-66
2021/06/20 02:00:50;;;;;;;8.30;3.67;;;21.40;99.90;;;;;;5053673;28;20507;-65
2021/06/20 02:03:19;;;;;;;4.30;2.90;;;21.50;99.90;;;;;;5033820;28;20179;-65
2021/06/20 02:05:47;;;;;;;5.03;3.23;;;21.70;99.90;;;;;;5036318;28;20459;-65
2021/06/20 02:08:13;;;;;;;6.30;2.87;;;21.90;99.90;;;;;;5036620;28;20410;-65
2021/06/20 02:10:41;;;;;;;3.87;2.40;;;22.20;99.90;;;;;;5038057;28;20732;-65
2021/06/20 02:13:07;;;;;;;5.93;2.47;;;22.30;99.90;;;;;;5049852;28;20460;-64
2021/06/20 02:15:34;;;;;;;5.70;2.67;;;22.30;99.90;;;;;;5048554;28;20552;-64
2021/06/20 02:18:00;;;;;;;4.23;2.03;;;22.40;99.90;;;;;;5043319;28;20579;-64
2021/06/20 02:20:25;;;;;;;4.73;2.30;;;22.40;99.90;;;;;;5035525;28;20455;-64
2021/06/20 02:22:52;;;;;;;4.63;2.67;;;22.40;99.90;;;;;;5041630;28;20769;-64
2021/06/20 02:25:19;;;;;;;6.40;3.07;;;22.40;99.90;;;;;;5054754;28;20206;-64
2021/06/20 02:27:47;;;;;;;5.53;2.50;;;22.30;99.90;;;;;;5054928;28;20393;-64
2021/06/20 02:30:14;;;;;;;5.43;2.90;;;22.30;99.90;;;;;;5055633;28;20417;-65
2021/06/20 02:32:40;;;;;;;7.40;3.20;;;22.30;99.90;;;;;;5054186;28;20499;-65
2021/06/20 02:35:08;;;;;;;7.73;3.10;;;22.20;99.90;;;;;;5053064;28;20468;-65
2021/06/20 02:37:34;;;;;;;5.13;2.70;;;22.20;99.90;;;;;;5052982;28;20467;-64
2021/06/20 02:40:00;;;;;;;7.73;3.53;;;22.10;99.90;;;;;;5053243;28;20462;-65
2021/06/20 02:42:26;;;;;;;6.53;2.97;;;22.10;99.90;;;;;;5054423;28;20880;-65
2021/06/20 02:44:53;;;;;;;4.37;3.10;;;22.00;99.90;;;;;;5054194;28;20323;-64
2021/06/20 02:47:18;;;;;;;4.93;3.43;;;22.00;99.90;;;;;;5054423;28;20470;-65
2021/06/20 02:49:44;;;;;;;5.80;3.40;;;22.00;99.90;;;;;;5053987;28;20953;-65
2021/06/20 02:52:12;;;;;;;6.07;3.67;;;22.00;99.90;;;;;;5053953;28;20204;-65
2021/06/20 02:54:49;;;;;;;7.28;3.72;;;22.00;99.90;;;;;;5052838;28;20408;-64
2021/06/20 02:57:22;;;;;;;5.50;3.50;;;22.10;99.90;;;;;;5054432;28;20182;-64
2021/06/20 02:59:49;;;;;;;3.83;3.27;;;22.20;99.90;;;;;;5054325;28;20432;-64
2021/06/20 03:02:15;;;;;;;6.40;3.63;;;22.20;99.90;;;;;;5054587;28;20408;-64
2021/06/20 03:04:41;;;;;;;6.10;3.30;;;22.30;99.90;;;;;;5053633;28;20439;-64
2021/06/20 03:07:07;;;;;;;6.90;3.47;;;22.30;99.90;;;;;;5054420;28;20814;-64
2021/06/20 03:09:35;;;;;;;10.10;4.37;;;22.30;99.90;;;;;;5054084;28;20181;-65
2021/06/20 03:12:02;;;;;;;6.63;4.07;;;22.30;99.90;;;;;;5053756;28;20205;-64
2021/06/20 03:14:27;;;;;;;8.87;4.10;;;22.40;99.90;;;;;;5053634;28;20405;-64
2021/06/20 03:16:53;;;;;;;9.00;4.10;;;22.40;99.90;;;;;;5053490;28;20521;-64
2021/06/20 03:19:19;;;;;;;5.97;4.17;;;22.50;99.90;;;;;;5054479;28;20177;-65
2021/06/20 03:21:44;;;;;;;8.23;4.10;;;22.40;99.90;;;;;;5053255;28;20182;-64
2021/06/20 03:24:10;;;;;;;11.33;4.27;;;22.40;99.90;;;;;;5053884;28;20178;-64
2021/06/20 03:26:36;;;;;;;6.10;4.00;;;22.40;99.90;;;;;;5054040;28;20546;-64
2021/06/20 03:29:02;;;;;;;8.63;5.27;;;22.50;99.90;;;;;;5054162;28;20170;-65
2021/06/20 03:31:28;;;;;;;7.70;4.20;;;22.50;99.90;;;;;;5053780;28;20534;-64
2021/06/20 03:33:57;;;;;;;9.30;4.80;;;22.40;99.90;;;;;;5053090;28;20459;-65
2021/06/20 03:36:23;;;;;;;8.70;4.97;;;22.40;99.90;;;;;;5053390;28;20500;-65
2021/06/20 03:38:48;;;;;;;8.10;4.20;;;22.40;99.90;;;;;;5053958;28;20746;-65
2021/06/20 03:41:14;;;;;;;8.20;4.50;;;22.50;99.90;;;;;;5053263;28;20240;-66
2021/06/20 03:43:41;;;;;;;5.80;4.40;;;22.50;99.90;;;;;;5053295;28;20185;-65
2021/06/20 03:46:07;;;;;;;8.73;4.70;;;22.40;99.90;;;;;;5053187;28;20216;-65
2021/06/20 03:48:33;;;;;;;5.27;4.40;;;22.40;99.90;;;;;;5053250;28;20675;-65
2021/06/20 03:50:58;;;;;;;6.27;3.90;;;22.40;99.90;;;;;;5053482;28;20192;-65
2021/06/20 03:53:24;;;;;;;5.90;4.00;;;22.50;99.90;;;;;;5052614;28;20247;-64
2021/06/20 03:55:49;;;;;;;7.70;4.07;;;22.50;99.90;;;;;;5052685;28;20186;-65
2021/06/20 03:58:15;;;;;;;7.00;3.77;;;22.40;99.90;;;;;;5052619;28;20202;-66
2021/06/20 04:00:40;;;;;;;6.53;4.17;;;22.40;99.90;;;;;;5054607;28;20166;-65
2021/06/20 04:03:06;;;;;;;7.50;3.90;;;22.40;99.90;;;;;;5054130;28;20412;-64
2021/06/20 04:05:32;;;;;;;5.43;3.53;;;22.40;99.90;;;;;;5055063;28;20247;-65
2021/06/20 04:07:58;;;;;;;6.83;3.40;;;22.40;99.90;;;;;;5054680;28;20181;-65
2021/06/20 04:10:24;;;;;;;4.95;3.30;;;22.40;99.90;;;;;;5053295;28;20780;-64
2021/06/20 04:12:49;;;;;;;5.03;3.40;;;22.60;99.90;;;;;;5052698;28;20339;-65
2021/06/20 04:15:15;;;;;;;5.30;3.30;;;22.60;99.90;;;;;;5046276;28;20225;-65
2021/06/20 04:17:40;;;;;;;5.23;3.27;;;22.50;99.90;;;;;;5035780;28;20512;-65
2021/06/20 04:20:09;;;;;;;4.83;3.00;;;22.40;99.90;;;;;;5041273;28;20533;-65
2021/06/20 04:22:36;;;;;;;4.17;3.20;;;22.40;99.90;;;;;;5051673;28;20224;-64
2021/06/20 04:25:02;;;;;;;4.47;2.97;;;22.40;99.90;;;;;;5052824;28;20858;-65
2021/06/20 04:27:27;;;;;;;4.70;3.30;;;22.40;99.90;;;;;;5052844;28;20409;-65
2021/06/20 04:29:53;;;;;;;4.27;3.23;;;22.40;99.90;;;;;;5052968;28;20416;-64
2021/06/20 04:32:18;;;;;;;5.83;3.40;;;22.40;99.90;;;;;;5053204;28;20198;-65
2021/06/20 04:34:44;;;;;;;6.23;3.40;;;22.40;99.90;;;;;;5052999;28;20185;-65
2021/06/20 04:37:09;;;;;;;4.13;2.70;;;22.40;99.90;;;;;;5051551;28;20174;-65
2021/06/20 04:39:35;;;;;;;5.60;3.20;;;22.40;99.90;;;;;;5052205;28;20557;-65
2021/06/20 04:42:01;;;;;;;5.10;3.20;;;22.50;99.90;;;;;;5052797;28;20174;-65
2021/06/20 04:44:45;;;;;;;4.10;3.30;;;22.40;99.90;;;;;;5053209;28;20623;-65
2021/06/20 04:47:13;;;;;;;5.63;3.60;;;22.40;99.90;;;;;;5056413;28;20440;-65
2021/06/20 04:49:40;;;;;;;5.43;3.30;;;22.40;99.90;;;;;;5056090;28;20498;-65
2021/06/20 04:52:07;;;;;;;5.00;2.90;;;22.40;99.90;;;;;;5056341;28;20709;-65
2021/06/20 04:54:35;;;;;;;4.03;2.80;;;22.50;99.90;;;;;;5055872;28;20436;-65
2021/06/20 04:57:02;;;;;;;2.70;2.43;;;22.50;99.90;;;;;;5056470;28;20435;-65
2021/06/20 04:59:27;;;;;;;3.73;3.00;;;22.50;99.90;;;;;;5056424;28;20420;-65
2021/06/20 05:01:53;;;;;;;3.20;2.90;;;22.60;99.90;;;;;;5055761;28;20907;-65
2021/06/20 05:04:18;;;;;;;2.77;2.47;;;22.60;99.90;;;;;;5055920;28;20181;-65
2021/06/20 05:06:44;;;;;;;5.17;3.37;;;22.50;99.90;;;;;;5054579;28;20244;-65
2021/06/20 05:09:09;;;;;;;4.20;2.70;;;22.50;99.90;;;;;;5056025;28;20181;-65
2021/06/20 05:11:35;;;;;;;7.10;2.93;;;22.60;99.90;;;;;;5055837;28;20182;-65
2021/06/20 05:14:01;;;;;;;4.10;2.50;;;22.60;99.90;;;;;;5055512;28;20680;-65
2021/06/20 05:16:26;;;;;;;3.53;2.20;;;22.50;99.90;;;;;;5055843;28;20226;-65
2021/06/20 05:18:52;;;;;;;4.27;2.60;;;22.60;99.90;;;;;;5056540;28;20397;-65
2021/06/20 05:21:18;;;;;;;4.40;2.53;;;22.60;99.90;;;;;;5060593;28;20166;-65
2021/06/20 05:23:44;;;;;;;2.93;2.57;;;22.60;99.90;;;;;;5060493;28;20208;-65
2021/06/20 05:26:09;;;;;;;5.50;3.10;;;22.60;99.90;;;;;;5060818;28;20198;-65
2021/06/20 05:28:35;;;;;;;4.80;2.87;;;22.60;99.90;;;;;;5059345;28;20476;-65
2021/06/20 05:31:00;;;;;;;4.97;3.20;;;22.70;99.90;;;;;;5059593;28;20213;-65
2021/06/20 05:33:26;;;;;;;5.40;2.77;;;22.90;99.90;;;;;;5060307;28;20193;-66
2021/06/20 05:35:51;;;;;;;5.40;3.20;;;22.80;99.90;;;;;;5056779;28;20269;-65
2021/06/20 05:38:17;;;;;;;3.23;2.47;;;23.10;99.90;;;;;;5057393;28;20224;-65
2021/06/20 05:40:43;;;;;;;3.00;2.70;;;23.00;99.90;;;;;;5056309;28;20582;-65
2021/06/20 05:43:09;;;;;;;2.60;2.37;;;23.20;99.90;;;;;;5056458;28;20166;-65
2021/06/20 05:45:35;;;;;;;3.27;2.70;;;23.40;99.90;;;;;;5056192;28;20462;-64
2021/06/20 05:48:01;;;;;;;4.47;2.83;;;23.50;99.90;;;;;;5056675;28;20261;-64
2021/06/20 05:50:27;;;;;;;3.40;2.73;;;23.40;99.90;;;;;;5055674;28;20504;-65
2021/06/20 05:52:53;;;;;;;3.50;2.67;;;23.40;99.90;;;;;;5056103;28;20217;-64
2021/06/20 05:55:19;;;;;;;2.67;2.47;;;23.30;99.90;;;;;;5055692;28;20432;-64
2021/06/20 05:57:44;;;;;;;4.67;2.60;;;23.30;99.90;;;;;;5055569;28;20454;-65
2021/06/20 06:00:11;;;;;;;3.90;2.60;;;23.40;99.90;;;;;;5055990;28;20166;-64
2021/06/20 06:02:36;;;;;;;5.07;2.67;;;23.40;99.90;;;;;;5055433;28;20189;-65
2021/06/20 06:05:03;;;;;;;2.80;2.50;;;23.50;99.90;;;;;;5055799;28;20428;-65
2021/06/20 06:07:29;;;;;;;4.03;2.87;;;23.40;99.90;;;;;;5055802;28;20170;-64
2021/06/20 06:09:54;;;;;;;3.43;3.13;;;23.50;99.90;;;;;;5055553;28;20424;-65
2021/06/20 06:12:23;;;;;;;3.30;3.00;;;23.60;99.90;;;;;;5055531;28;20236;-63
2021/06/20 06:14:51;;;;;;;3.00;2.37;;;23.40;99.90;;;;;;5056165;28;20624;-64
2021/06/20 06:17:16;;;;;;;3.10;2.60;;;23.40;99.90;;;;;;5055287;28;20459;-64
2021/06/20 06:19:42;;;;;;;4.83;3.30;;;23.40;99.90;;;;;;5055787;28;20416;-66
2021/06/20 06:22:07;;;;;;;2.70;2.37;;;23.40;99.90;;;;;;5054303;28;20201;-66
2021/06/20 06:24:33;;;;;;;3.03;2.73;;;23.40;99.90;;;;;;5053137;28;20221;-65
2021/06/20 06:26:58;;;;;;;3.20;2.90;;;23.40;99.90;;;;;;5054753;28;20182;-65
2021/06/20 06:29:24;;;;;;;3.17;2.87;;;23.50;99.90;;;;;;5055307;28;20616;-65
2021/06/20 06:31:49;;;;;;;3.03;2.67;;;23.60;99.90;;;;;;5049291;28;20214;-65
2021/06/20 06:34:15;;;;;;;4.50;2.60;;;23.60;99.90;;;;;;5045713;28;20213;-65
2021/06/20 06:36:40;;;;;;;3.10;2.57;;;23.50;99.90;;;;;;5043628;28;20202;-65
2021/06/20 06:39:06;;;;;;;3.43;3.00;;;23.60;99.90;;;;;;5035904;28;20254;-64
2021/06/20 06:41:32;;;;;;;3.30;3.00;;;23.60;99.90;;;;;;5034782;28;20186;-65
2021/06/20 06:43:58;;;;;;;3.40;3.10;;;23.50;99.90;;;;;;5045443;28;20775;-64
2021/06/20 06:46:24;;;;;;;3.97;3.23;;;23.40;99.90;;;;;;5054975;28;20209;-65
2021/06/20 06:48:49;;;;;;;2.90;2.70;;;23.30;99.90;;;;;;5054132;28;20401;-65
2021/06/20 06:51:15;;;;;;;3.27;2.70;;;23.30;99.90;;;;;;5054292;28;20167;-64
2021/06/20 06:53:41;;;;;;;4.93;3.13;;;23.10;99.90;;;;;;5053686;28;20269;-64
2021/06/20 06:56:06;;;;;;;3.50;2.90;;;23.10;99.90;;;;;;5042079;28;20207;-64
2021/06/20 06:58:32;;;;;;;2.63;2.43;;;23.20;99.90;;;;;;5040895;28;20194;-66
2021/06/20 07:00:57;;;;;;;4.10;2.70;;;23.30;99.90;;;;;;5035074;28;20182;-64
2021/06/20 07:03:23;;;;;;;3.20;2.90;;;23.40;99.90;;;;;;5045884;28;20186;-64
2021/06/20 07:05:49;;;;;;;3.37;2.63;;;23.40;99.90;;;;;;5040204;28;20692;-65
2021/06/20 07:08:14;;;;;;;2.97;2.60;;;23.60;99.90;;;;;;5049549;28;20185;-66
2021/06/20 07:10:40;;;;;;;4.33;2.77;;;23.60;99.90;;;;;;5045759;28;20182;-66
2021/06/20 07:13:05;;;;;;;2.90;2.63;;;23.70;99.90;;;;;;5035752;28;20214;-65
2021/06/20 07:15:31;;;;;;;2.60;2.40;;;23.90;99.90;;;;;;5043216;28;20680;-65
2021/06/20 07:17:56;;;;;;;2.97;2.67;;;23.90;99.90;;;;;;5034105;28;20253;-66
2021/06/20 07:20:22;;;;;;;3.50;3.00;;;23.90;99.90;;;;;;5044860;28;20272;-65
2021/06/20 07:22:49;;;;;;;3.40;2.60;;;23.90;99.90;;;;;;5035364;28;20241;-65
2021/06/20 07:25:20;;;;;;;2.80;2.60;;;23.80;99.90;;;;;;5034728;28;20198;-65
2021/06/20 07:27:46;;;;;;;3.10;2.63;;;23.70;99.90;;;;;;5039092;28;20490;-66
2021/06/20 07:30:14;;;;;;;2.60;2.40;;;23.60;99.90;;;;;;5053690;28;20478;-65
2021/06/20 07:32:41;;;;;;;3.17;2.87;;;23.60;99.90;;;;;;5053579;28;20458;-65
2021/06/20 07:35:07;;;;;;;2.93;2.73;;;23.70;99.90;;;;;;5033239;28;20527;-64
2021/06/20 07:37:33;;;;;;;2.83;2.50;;;23.80;99.90;;;;;;5074449;28;20442;-65
2021/06/20 07:39:58;;;;;;;4.07;2.73;;;23.80;99.90;;;;;;5076017;28;20483;-66
2021/06/20 07:42:25;;;;;;;3.97;2.60;;;23.60;99.90;;;;;;5070913;28;20947;-74
2021/06/20 07:44:50;;;;;;;7.17;3.20;;;23.60;99.90;;;;;;5081777;28;20209;-72
2021/06/20 07:47:17;;;;;;;3.43;2.57;;;23.70;99.90;;;;;;5076897;28;20510;-72
2021/06/20 07:49:42;;;;;;;2.50;2.30;;;23.70;99.90;;;;;;5084652;28;20499;-71
2021/06/20 07:52:08;;;;;;;2.70;2.50;;;23.50;99.90;;;;;;5077057;28;20534;-74
2021/06/20 07:54:34;;;;;;;2.47;2.27;;;23.40;99.90;;;;;;5066074;28;20179;-74
2021/06/20 07:56:59;;;;;;;2.73;2.53;;;23.50;99.90;;;;;;5066290;28;20198;-73
2021/06/20 07:59:25;;;;;;;2.60;2.40;;;23.60;99.90;;;;;;5061921;28;20585;-72
2021/06/20 08:01:50;;;;;;;2.87;2.27;;;23.70;99.90;;;;;;5050324;28;20202;-73
2021/06/20 08:04:16;;;;;;;2.30;2.20;;;23.60;99.90;;;;;;5051485;28;20186;-72
2021/06/20 08:06:41;;;;;;;3.70;2.80;;;23.60;99.90;;;;;;5054068;28;20220;-71
2021/06/20 08:09:07;;;;;;;2.83;2.63;;;23.60;99.90;;;;;;5048349;28;20242;-72
2021/06/20 08:11:33;;;;;;;5.30;2.80;;;23.80;99.90;;;;;;5044414;28;20186;-73
2021/06/20 08:13:59;;;;;;;2.90;2.70;;;24.00;99.90;;;;;;5047018;28;20205;-73
2021/06/20 08:16:25;;;;;;;4.93;3.00;;;24.30;99.90;;;;;;5057452;28;20440;-72
2021/06/20 08:18:52;;;;;;;3.60;2.53;;;24.60;99.90;;;;;;5053094;28;20421;-72
2021/06/20 08:21:18;;;;;;;2.70;2.47;;;24.90;99.90;;;;;;5057172;28;20409;-72
2021/06/20 08:23:43;;;;;;;3.07;2.33;;;25.00;98.30;;;;;;5057764;28;20545;-72
2021/06/20 08:26:09;;;;;;;3.23;2.93;;;25.10;97.60;;;;;;5053707;28;20634;-72
2021/06/20 08:28:35;;;;;;;2.20;2.10;;;25.10;97.60;;;;;;5048598;28;20182;-71
2021/06/20 08:31:02;;;;;;;2.50;2.30;;;24.90;96.90;;;;;;5057280;28;20499;-71
2021/06/20 08:33:27;;;;;;;2.20;2.00;;;25.10;96.60;;;;;;5055874;28;20202;-71
2021/06/20 08:35:53;;;;;;;2.87;2.40;;;25.10;96.20;;;;;;5056588;28;20436;-71
2021/06/20 08:38:19;;;;;;;2.90;2.53;;;25.20;96.30;;;;;;5057841;28;20640;-72
2021/06/20 08:40:44;;;;;;;2.50;2.27;;;25.40;96.40;;;;;;5056077;28;20170;-72
2021/06/20 08:43:10;;;;;;;3.00;2.80;;;25.40;96.40;;;;;;5057261;28;20698;-71
2021/06/20 08:45:37;;;;;;;4.40;2.30;;;25.40;96.00;;;;;;5056990;28;20230;-72
2021/06/20 08:48:02;;;;;;;3.17;2.33;;;25.40;96.10;;;;;;5057021;28;20177;-71
2021/06/20 08:50:28;;;;;;;4.70;2.37;;;25.40;95.40;;;;;;5058265;28;20997;-72
2021/06/20 08:52:55;;;;;;;3.07;1.60;;;25.50;94.70;;;;;;5060544;28;20201;-71
2021/06/20 08:55:22;;;;;;;2.70;2.43;;;25.50;94.20;;;;;;5064014;28;20431;-72
2021/06/20 08:57:48;;;;;;;2.37;1.90;;;25.50;94.10;;;;;;5059923;28;20482;-72
2021/06/20 09:00:17;;;;;;;2.37;2.00;;;25.60;94.30;;;;;;5046769;28;20429;-72
2021/06/20 09:02:43;;;;;;;2.00;1.50;;;25.70;93.80;;;;;;5055898;28;20774;-73
2021/06/20 09:05:10;;;;;;;2.30;2.03;;;25.80;93.70;;;;;;5056701;28;20454;-72
2021/06/20 09:07:39;;;;;;;3.80;2.10;;;26.00;93.60;;;;;;5056975;28;20409;-73
2021/06/20 09:10:26;;;;;;;2.38;2.17;;;26.00;93.40;;;;;;5051921;28;20797;-72
2021/06/20 09:12:56;;;;;;;2.20;2.00;;;25.80;93.10;;;;;;5056277;28;20714;-72
2021/06/20 09:15:29;;;;;;;2.23;2.00;;;25.30;93.30;;;;;;5055022;28;20448;-72
2021/06/20 09:17:59;;;;;;;3.20;2.17;;;25.40;93.30;;;;;;5072339;28;20411;-71
2021/06/20 09:20:34;;;;;;;2.83;2.07;;;25.50;93.60;;;;;;5065046;28;20412;-72
2021/06/20 09:23:02;;;;;;;2.20;2.00;;;25.70;93.10;;;;;;5063760;28;20455;-72
2021/06/20 09:25:28;;;;;;;2.60;2.10;;;25.70;92.50;;;;;;5070255;28;20450;-71
2021/06/20 09:27:59;;;;;;;2.40;2.20;;;25.60;92.90;;;;;;5064421;28;20420;-71
2021/06/20 09:30:26;;;;;;;3.90;2.03;;;25.70;92.70;;;;;;5063974;28;20424;-72
2021/06/20 09:32:57;;;;;;;2.40;2.00;;;25.80;92.60;;;;;;5067976;28;20471;-72
2021/06/20 09:35:24;;;;;;;2.10;1.90;;;25.60;92.40;;;;;;5072896;28;20439;-71
2021/06/20 09:37:58;;;;;;;3.23;1.90;;;25.60;92.50;;;;;;5072591;28;20437;-72
2021/06/20 09:40:27;;;;;;;2.50;1.90;;;25.50;92.30;;;;;;5057371;28;20435;-73
2021/06/20 09:42:52;;;;;;;2.13;1.93;;;25.20;91.90;;;;;;5064828;28;20874;-73
2021/06/20 09:45:33;;;;;;;1.93;1.73;;;25.10;92.10;;;;;;5054756;28;20440;-72
2021/06/20 09:47:59;;;;;;;2.40;2.00;;;25.10;92.40;;;;;;5064360;28;20521;-72
2021/06/20 09:50:34;;;;;;;2.27;2.07;;;25.20;92.40;;;;;;5059567;28;20965;-73
2021/06/20 09:53:00;;;;;;;2.60;2.30;;;25.30;92.30;;;;;;5068545;28;20477;-72
2021/06/20 09:55:26;;;;;;;2.13;1.93;;;25.30;92.20;;;;;;5063339;28;20483;-72
2021/06/20 09:57:52;;;;;;;2.27;2.10;;;25.40;92.30;;;;;;5059127;28;20416;-71
2021/06/20 10:00:18;;;;;;;3.10;2.33;;;25.20;92.30;;;;;;5071860;28;20265;-73
2021/06/20 10:02:44;;;;;;;2.10;1.83;;;25.20;92.60;;;;;;5057607;28;20205;-72
2021/06/20 10:05:11;;;;;;;2.03;1.83;;;25.30;92.40;;;;;;5069474;28;20929;-73
2021/06/20 10:07:38;;;;;;;2.93;1.80;;;25.50;91.60;;;;;;5071917;28;20411;-72
2021/06/20 10:10:07;;;;;;;3.10;2.03;;;25.60;91.50;;;;;;5072394;28;20438;-73
2021/06/20 10:12:33;;;;;;;2.20;1.90;;;25.70;90.80;;;;;;5070075;28;20467;-72
2021/06/20 10:15:03;;;;;;;2.43;2.23;;;25.80;90.70;;;;;;5054549;28;20480;-72
2021/06/20 10:17:34;;;;;;;2.33;1.60;;;25.90;90.90;;;;;;5037046;28;20422;-71
2021/06/20 10:20:05;;;;;;;2.93;1.80;;;26.00;90.60;;;;;;5071373;28;20424;-72
2021/06/20 10:22:37;;;;;;;2.10;1.90;;;26.00;90.50;;;;;;5064675;28;20428;-72
2021/06/20 10:25:09;;;;;;;2.88;2.30;;;26.00;90.50;;;;;;5054856;28;20572;-72
2021/06/20 10:27:38;;;;;;;2.47;2.00;;;26.10;90.10;;;;;;5041477;28;20287;-72
2021/06/20 10:30:21;;;;;;;1.90;1.70;;;25.90;90.40;;;;;;5073370;28;20435;-72
2021/06/20 10:32:48;;;;;;;3.43;2.20;;;26.00;90.30;;;;;;5073661;28;20494;-72
2021/06/20 10:35:17;;;;;;;2.40;2.03;;;26.10;90.00;;;;;;5060027;28;20461;-72
2021/06/20 10:37:43;;;;;;;2.70;2.30;;;26.30;89.50;;;;;;5070002;28;20430;-72
2021/06/20 10:40:33;;;;;;;2.40;2.23;;;26.20;89.40;;;;;;5071007;28;20412;-72
2021/06/20 10:43:13;;;;;;;2.40;2.20;;;26.30;90.00;;;;;;5054411;28;20417;-72
2021/06/20 10:45:39;;;;;;;3.73;2.30;;;26.20;89.50;;;;;;5055777;28;20442;-72
2021/06/20 10:48:16;;;;;;;2.30;2.07;;;26.40;90.10;;;;;;5064242;28;20415;-72
2021/06/20 10:50:47;;;;;;;2.60;2.40;;;26.40;90.10;;;;;;5070399;28;20201;-72
2021/06/20 10:53:14;;;;;;;2.90;2.67;;;26.40;90.30;;;;;;5066589;28;20596;-72
2021/06/20 10:55:41;;;;;;;3.50;2.20;;;26.50;90.10;;;;;;5046484;28;20468;-72
2021/06/20 10:58:20;;;;;;;2.57;2.37;;;26.30;90.10;;;;;;5059426;28;20436;-72
2021/06/20 11:00:47;;;;;;;3.60;2.60;;;26.20;90.30;;;;;;5070527;28;20522;-72
2021/06/20 11:03:12;;;;;;;3.17;2.97;;;26.40;90.50;;;;;;5064059;28;20767;-72
2021/06/20 11:05:52;;;;;;;2.67;2.27;;;26.40;90.40;;;;;;5069977;28;20516;-72
2021/06/20 11:08:25;;;;;;;2.80;2.40;;;26.50;90.30;;;;;;5051102;28;20656;-72
2021/06/20 11:11:23;;;;;;;2.20;1.90;;;26.40;90.20;;;;;;5070208;28;20416;-72
2021/06/20 11:14:05;;;;;;;4.17;2.10;;;26.40;90.40;;;;;;5068536;28;20468;-72
2021/06/20 11:16:37;;;;;;;2.07;1.87;;;26.50;90.00;;;;;;5062246;28;20451;-72
2021/06/20 11:19:14;;;;;;;2.70;2.50;;;26.70;90.00;;;;;;5070110;28;20412;-72
2021/06/20 11:21:48;;;;;;;2.37;2.17;;;26.80;89.70;;;;;;5046382;28;20420;-72
2021/06/20 11:24:23;;;;;;;2.83;2.07;;;26.90;88.90;;;;;;5070265;28;20420;-72
2021/06/20 11:26:53;;;;;;;2.90;2.37;;;26.80;88.70;;;;;;5066300;28;20451;-72
2021/06/20 11:29:20;;;;;;;2.50;2.30;;;26.90;88.60;;;;;;5070061;28;20780;-72
2021/06/20 11:31:54;;;;;;;2.60;2.40;;;26.90;87.80;;;;;;5070337;28;20407;-72
2021/06/20 11:34:20;;;;;;;2.60;2.23;;;26.70;86.40;;;;;;5069976;28;20412;-71
2021/06/20 11:36:46;;;;;;;2.87;2.57;;;26.80;86.40;;;;;;5055907;28;20531;-71
2021/06/20 11:39:15;;;;;;;3.93;2.00;;;26.70;86.00;;;;;;5067981;28;20487;-71
2021/06/20 11:41:46;;;;;;;3.37;1.93;;;26.80;86.40;;;;;;5069525;28;20435;-71
2021/06/20 11:44:13;;;;;;;2.50;2.30;;;26.90;86.80;;;;;;5060210;28;20417;-71
2021/06/20 11:46:42;;;;;;;3.40;2.07;;;26.90;86.30;;;;;;5056401;28;20549;-71
2021/06/20 11:49:10;;;;;;;2.40;2.20;;;26.90;86.60;;;;;;5055858;28;20475;-72
2021/06/20 11:51:36;;;;;;;2.30;2.10;;;26.90;86.90;;;;;;5054686;28;20419;-71
2021/06/20 11:54:06;;;;;;;2.13;1.90;;;27.10;86.10;;;;;;5069923;28;20903;-73
2021/06/20 11:56:32;;;;;;;2.70;2.50;;;27.20;85.30;;;;;;5070059;28;20724;-72
2021/06/20 11:58:58;;;;;;;3.07;2.67;;;27.00;85.40;;;;;;5064348;28;20443;-72
2021/06/20 12:01:25;;;;;;;2.70;2.20;;;26.90;85.60;;;;;;5060316;28;20829;-71
2021/06/20 12:03:53;;;;;;;5.50;3.70;;;26.90;86.10;;;;;;5064668;28;20654;-72
2021/06/20 12:06:25;;;;;;;2.50;2.30;;;26.70;85.90;;;;;;5069876;28;20932;-72
2021/06/20 12:08:51;;;;;;;3.70;2.70;;;26.60;86.60;;;;;;5055886;28;20515;-72
2021/06/20 12:11:28;;;;;;;3.23;2.40;;;26.60;86.60;;;;;;5066394;28;20561;-71
2021/06/20 12:13:54;;;;;;;5.03;2.70;;;26.50;86.20;;;;;;5056720;28;20197;-72
2021/06/20 12:16:19;;;;;;;3.53;2.77;;;26.40;87.20;;;;;;5069959;28;20488;-70
2021/06/20 12:18:45;;;;;;;3.33;2.20;;;26.40;86.80;;;;;;5056840;28;20432;-72
2021/06/20 12:21:22;;;;;;;2.50;2.30;;;26.30;87.60;;;;;;5062531;28;20174;-73
2021/06/20 12:23:59;;;;;;;2.50;2.30;;;26.20;88.10;;;;;;5075297;28;20173;-72
2021/06/20 12:26:27;;;;;;;2.60;2.40;;;26.20;88.50;;;;;;5069986;28;20439;-72
2021/06/20 12:28:52;;;;;;;3.90;3.10;;;26.50;88.70;;;;;;5066281;28;21855;-72
2021/06/20 12:31:18;;;;;;;5.00;3.23;;;26.70;87.70;;;;;;5067799;28;20424;-72
2021/06/20 12:33:44;;;;;;;3.17;2.33;;;26.80;87.30;;;;;;5069234;28;20455;-71
2021/06/20 12:36:10;;;;;;;4.33;3.73;;;26.80;87.60;;;;;;5069783;28;20197;-71
2021/06/20 12:38:37;;;;;;;5.73;3.20;;;26.90;88.00;;;;;;5070316;28;20259;-72
2021/06/20 12:41:15;;;;;;;3.10;2.30;;;27.10;87.30;;;;;;5054105;28;20440;-71
2021/06/20 12:43:41;;;;;;;5.30;2.90;;;27.30;86.90;;;;;;5047605;28;21035;-72
2021/06/20 12:46:09;;;;;;;4.20;2.17;;;27.40;85.30;;;;;;5061109;28;20530;-72
2021/06/20 12:48:39;;;;;;;2.17;1.97;;;27.70;84.10;;;;;;5080065;28;20181;-72